sensor_id;sensor_type;location;lat;lon;timestamp;pressure;altitude;pressure_sealevel;temperature;humidity
54455;BME280;40364;52.270;10.546;2022-12-24T00:00:54;99364.03;;;19.72;52.19
54455;BME280;40364;52.270;10.546;2022-12-24T00:03:23;99377.50;;;19.41;52.95
54455;BME280;40364;52.270;10.546;2022-12-24T00:05:50;99365.31;;;19.01;53.68
54455;BME280;40364;52.270;10.546;2022-12-24T00:08:16;99370.75;;;18.92;54.31
54455;BME280;40364;52.270;10.546;2022-12-24T00:10:43;99363.66;;;19.04;53.20
54455;BME280;40364;52.270;10.546;2022-12-24T00:13:13;99364.31;;;19.35;52.20
54455;BME280;40364;52.270;10.546;2022-12-24T00:15:39;99365.34;;;19.44;52.10
54455;BME280;40364;52.270;10.546;2022-12-24T00:18:06;99366.28;;;19.38;52.26
54455;BME280;40364;52.270;10.546;2022-12-24T00:20:34;99374.31;;;19.82;51.20
54455;BME280;40364;52.270;10.546;2022-12-24T00:23:00;99376.47;;;19.55;51.36
54455;BME280;40364;52.270;10.546;2022-12-24T00:25:27;99377.13;;;19.39;52.04
54455;BME280;40364;52.270;10.546;2022-12-24T00:27:54;99383.34;;;19.54;51.77
54455;BME280;40364;52.270;10.546;2022-12-24T00:30:20;99383.94;;;19.85;50.93
54455;BME280;40364;52.270;10.546;2022-12-24T00:32:47;99378.13;;;19.92;50.33
54455;BME280;40364;52.270;10.546;2022-12-24T00:35:13;99382.56;;;19.93;50.43
54455;BME280;40364;52.270;10.546;2022-12-24T00:37:41;99376.53;;;19.52;51.31
54455;BME280;40364;52.270;10.546;2022-12-24T00:40:09;99384.50;;;19.33;51.67
54455;BME280;40364;52.270;10.546;2022-12-24T00:42:35;99378.50;;;19.31;51.52
54455;BME280;40364;52.270;10.546;2022-12-24T00:45:02;99387.78;;;19.55;51.30
54455;BME280;40364;52.270;10.546;2022-12-24T00:47:29;99390.75;;;19.25;51.41
54455;BME280;40364;52.270;10.546;2022-12-24T00:49:56;99396.84;;;19.43;50.85
54455;BME280;40364;52.270;10.546;2022-12-24T00:52:22;99399.75;;;19.82;50.23
54455;BME280;40364;52.270;10.546;2022-12-24T00:54:50;99407.19;;;19.93;50.14
54455;BME280;40364;52.270;10.546;2022-12-24T00:57:17;99423.91;;;19.40;50.81
54455;BME280;40364;52.270;10.546;2022-12-24T00:59:44;99410.97;;;19.20;51.49
54455;BME280;40364;52.270;10.546;2022-12-24T01:02:10;99404.47;;;19.23;51.59
54455;BME280;40364;52.270;10.546;2022-12-24T01:04:37;99392.41;;;18.72;51.84
54455;BME280;40364;52.270;10.546;2022-12-24T01:07:21;99392.69;;;19.51;50.65
54455;BME280;40364;52.270;10.546;2022-12-24T01:09:47;99399.31;;;19.17;51.47
54455;BME280;40364;52.270;10.546;2022-12-24T01:12:15;99407.34;;;19.86;50.07
54455;BME280;40364;52.270;10.546;2022-12-24T01:14:42;99409.81;;;19.83;49.76
54455;BME280;40364;52.270;10.546;2022-12-24T01:17:09;99410.09;;;19.89;49.44
54455;BME280;40364;52.270;10.546;2022-12-24T01:19:35;99406.53;;;20.05;49.01
54455;BME280;40364;52.270;10.546;2022-12-24T01:22:02;99422.97;;;19.90;49.40
54455;BME280;40364;52.270;10.546;2022-12-24T01:24:29;99438.78;;;19.88;49.13
54455;BME280;40364;52.270;10.546;2022-12-24T01:26:55;99432.81;;;19.62;49.64
54455;BME280;40364;52.270;10.546;2022-12-24T01:29:24;99426.84;;;20.00;48.78
54455;BME280;40364;52.270;10.546;2022-12-24T01:31:51;99435.00;;;19.74;49.23
54455;BME280;40364;52.270;10.546;2022-12-24T01:34:17;99440.81;;;20.07;48.53
54455;BME280;40364;52.270;10.546;2022-12-24T01:36:44;99448.81;;;20.12;48.30
54455;BME280;40364;52.270;10.546;2022-12-24T01:39:10;99448.50;;;20.06;48.41
54455;BME280;40364;52.270;10.546;2022-12-24T01:41:37;99441.84;;;20.16;48.17
54455;BME280;40364;52.270;10.546;2022-12-24T01:44:25;99455.75;;;20.07;48.26
54455;BME280;40364;52.270;10.546;2022-12-24T01:46:56;99446.34;;;20.14;48.17
54455;BME280;40364;52.270;10.546;2022-12-24T01:49:27;99458.22;;;19.86;48.85
54455;BME280;40364;52.270;10.546;2022-12-24T01:51:56;99449.75;;;18.92;51.66
54455;BME280;40364;52.270;10.546;2022-12-24T01:54:30;99439.06;;;19.27;51.29
54455;BME280;40364;52.270;10.546;2022-12-24T01:57:01;99435.81;;;19.75;49.78
54455;BME280;40364;52.270;10.546;2022-12-24T01:59:31;99433.28;;;19.80;49.21
54455;BME280;40364;52.270;10.546;2022-12-24T02:01:59;99444.44;;;19.88;48.88
54455;BME280;40364;52.270;10.546;2022-12-24T02:04:32;99450.25;;;19.80;49.07
54455;BME280;40364;52.270;10.546;2022-12-24T02:07:02;99452.56;;;19.86;48.69
54455;BME280;40364;52.270;10.546;2022-12-24T02:09:29;99453.16;;;19.54;49.35
54455;BME280;40364;52.270;10.546;2022-12-24T02:11:56;99453.06;;;19.57;49.71
54455;BME280;40364;52.270;10.546;2022-12-24T02:14:23;99456.63;;;19.38;50.31
54455;BME280;40364;52.270;10.546;2022-12-24T02:16:58;99461.00;;;19.66;49.61
54455;BME280;40364;52.270;10.546;2022-12-24T02:20:02;99458.97;;;19.66;49.46
54455;BME280;40364;52.270;10.546;2022-12-24T02:22:46;99471.56;;;20.05;49.14
54455;BME280;40364;52.270;10.546;2022-12-24T02:25:31;99472.56;;;19.95;48.88
54455;BME280;40364;52.270;10.546;2022-12-24T02:28:12;99481.56;;;19.66;49.26
54455;BME280;40364;52.270;10.546;2022-12-24T02:30:46;99479.31;;;20.01;48.83
54455;BME280;40364;52.270;10.546;2022-12-24T02:33:21;99483.22;;;20.07;48.60
54455;BME280;40364;52.270;10.546;2022-12-24T02:35:56;99488.69;;;20.37;48.46
54455;BME280;40364;52.270;10.546;2022-12-24T02:38:26;99482.63;;;20.35;47.98
54455;BME280;40364;52.270;10.546;2022-12-24T02:40:57;99479.97;;;18.92;50.91
54455;BME280;40364;52.270;10.546;2022-12-24T02:43:28;99481.31;;;19.80;49.37
54455;BME280;40364;52.270;10.546;2022-12-24T02:46:01;99480.16;;;19.04;50.84
54455;BME280;40364;52.270;10.546;2022-12-24T02:48:30;99477.06;;;19.22;50.27
54455;BME280;40364;52.270;10.546;2022-12-24T02:51:01;99480.84;;;19.62;49.50
54455;BME280;40364;52.270;10.546;2022-12-24T02:53:29;99484.56;;;19.32;50.02
54455;BME280;40364;52.270;10.546;2022-12-24T02:56:10;99475.31;;;18.17;52.78
54455;BME280;40364;52.270;10.546;2022-12-24T02:58:44;99481.41;;;18.76;52.51
54455;BME280;40364;52.270;10.546;2022-12-24T03:01:21;99481.06;;;18.98;52.58
54455;BME280;40364;52.270;10.546;2022-12-24T03:03:59;99485.19;;;19.67;50.53
54455;BME280;40364;52.270;10.546;2022-12-24T03:06:37;99475.84;;;18.96;51.18
54455;BME280;40364;52.270;10.546;2022-12-24T03:09:12;99476.72;;;18.93;52.51
54455;BME280;40364;52.270;10.546;2022-12-24T03:11:45;99482.38;;;18.93;52.23
54455;BME280;40364;52.270;10.546;2022-12-24T03:14:14;99485.56;;;19.45;51.30
54455;BME280;40364;52.270;10.546;2022-12-24T03:16:44;99480.84;;;19.62;50.98
54455;BME280;40364;52.270;10.546;2022-12-24T03:19:10;99489.88;;;19.27;50.68
54455;BME280;40364;52.270;10.546;2022-12-24T03:21:39;99489.75;;;20.04;49.77
54455;BME280;40364;52.270;10.546;2022-12-24T03:24:07;99490.75;;;19.94;49.96
54455;BME280;40364;52.270;10.546;2022-12-24T03:26:34;99499.44;;;19.83;50.47
54455;BME280;40364;52.270;10.546;2022-12-24T03:29:03;99499.75;;;20.08;49.87
54455;BME280;40364;52.270;10.546;2022-12-24T03:31:44;99503.94;;;19.30;51.77
54455;BME280;40364;52.270;10.546;2022-12-24T03:34:11;99500.59;;;18.89;54.50
54455;BME280;40364;52.270;10.546;2022-12-24T03:36:39;99512.66;;;18.28;56.72
54455;BME280;40364;52.270;10.546;2022-12-24T03:39:06;99513.31;;;18.70;56.34
54455;BME280;40364;52.270;10.546;2022-12-24T03:41:33;99524.16;;;17.69;60.47
54455;BME280;40364;52.270;10.546;2022-12-24T03:44:00;99535.75;;;18.12;59.76
54455;BME280;40364;52.270;10.546;2022-12-24T03:46:27;99534.06;;;17.84;62.27
54455;BME280;40364;52.270;10.546;2022-12-24T03:48:55;99537.56;;;17.96;64.31
54455;BME280;40364;52.270;10.546;2022-12-24T03:51:24;99542.28;;;17.61;66.21
54455;BME280;40364;52.270;10.546;2022-12-24T03:53:51;99544.41;;;18.66;61.46
54455;BME280;40364;52.270;10.546;2022-12-24T03:56:18;99553.16;;;17.59;70.26
54455;BME280;40364;52.270;10.546;2022-12-24T03:58:44;99557.47;;;18.15;71.06
54455;BME280;40364;52.270;10.546;2022-12-24T04:01:11;99557.03;;;18.21;71.37
54455;BME280;40364;52.270;10.546;2022-12-24T04:03:38;99551.13;;;17.63;76.40
54455;BME280;40364;52.270;10.546;2022-12-24T04:06:08;99548.56;;;17.83;79.44
54455;BME280;40364;52.270;10.546;2022-12-24T04:08:35;99551.09;;;18.45;71.68
54455;BME280;40364;52.270;10.546;2022-12-24T04:11:03;99560.25;;;18.19;75.05
54455;BME280;40364;52.270;10.546;2022-12-24T04:13:30;99557.63;;;18.73;69.30
54455;BME280;40364;52.270;10.546;2022-12-24T04:15:57;99561.53;;;16.41;89.54
54455;BME280;40364;52.270;10.546;2022-12-24T04:18:24;99570.66;;;16.60;88.64
54455;BME280;40364;52.270;10.546;2022-12-24T04:20:51;99570.63;;;16.77;88.22
54455;BME280;40364;52.270;10.546;2022-12-24T04:23:20;99564.88;;;15.47;100.00
54455;BME280;40364;52.270;10.546;2022-12-24T04:25:47;99568.06;;;15.42;100.00
54455;BME280;40364;52.270;10.546;2022-12-24T04:28:14;99574.13;;;15.59;100.00
54455;BME280;40364;52.270;10.546;2022-12-24T04:30:41;99568.44;;;15.05;100.00
54455;BME280;40364;52.270;10.546;2022-12-24T04:33:08;99568.44;;;15.16;100.00
54455;BME280;40364;52.270;10.546;2022-12-24T04:35:38;99581.72;;;15.55;100.00
54455;BME280;40364;52.270;10.546;2022-12-24T04:38:04;99584.91;;;15.53;100.00
54455;BME280;40364;52.270;10.546;2022-12-24T04:40:32;99581.69;;;15.40;100.00
54455;BME280;40364;52.270;10.546;2022-12-24T04:42:59;99587.56;;;16.52;90.86
54455;BME280;40364;52.270;10.546;2022-12-24T04:45:26;99601.78;;;15.64;96.84
54455;BME280;40364;52.270;10.546;2022-12-24T04:47:52;99600.56;;;15.61;97.21
54455;BME280;40364;52.270;10.546;2022-12-24T04:50:19;99607.00;;;15.79;96.26
54455;BME280;40364;52.270;10.546;2022-12-24T04:52:46;99601.69;;;16.31;91.45
54455;BME280;40364;52.270;10.546;2022-12-24T04:55:12;99592.56;;;15.77;94.43
54455;BME280;40364;52.270;10.546;2022-12-24T04:57:40;99596.53;;;16.05;93.32
54455;BME280;40364;52.270;10.546;2022-12-24T05:00:08;99605.81;;;15.59;100.00
54455;BME280;40364;52.270;10.546;2022-12-24T05:02:35;99612.50;;;15.08;100.00
54455;BME280;40364;52.270;10.546;2022-12-24T05:05:02;99606.91;;;15.08;100.00
54455;BME280;40364;52.270;10.546;2022-12-24T05:07:29;99613.72;;;15.07;100.00
54455;BME280;40364;52.270;10.546;2022-12-24T05:09:55;99615.78;;;15.46;100.00
54455;BME280;40364;52.270;10.546;2022-12-24T05:12:22;99608.47;;;14.92;100.00
54455;BME280;40364;52.270;10.546;2022-12-24T05:14:50;99615.03;;;15.70;96.89
54455;BME280;40364;52.270;10.546;2022-12-24T05:17:17;99611.41;;;15.84;93.28
54455;BME280;40364;52.270;10.546;2022-12-24T05:19:43;99629.44;;;15.69;93.06
54455;BME280;40364;52.270;10.546;2022-12-24T05:22:10;99629.03;;;16.20;87.51
54455;BME280;40364;52.270;10.546;2022-12-24T05:24:54;99640.56;;;16.72;82.72
54455;BME280;40364;52.270;10.546;2022-12-24T05:27:38;99655.53;;;17.28;79.46
54455;BME280;40364;52.270;10.546;2022-12-24T05:30:08;99653.81;;;16.68;80.67
54455;BME280;40364;52.270;10.546;2022-12-24T05:32:34;99659.69;;;17.05;78.49
54455;BME280;40364;52.270;10.546;2022-12-24T05:35:01;99669.19;;;17.33;74.07
54455;BME280;40364;52.270;10.546;2022-12-24T05:37:28;99663.44;;;16.77;78.14
54455;BME280;40364;52.270;10.546;2022-12-24T05:39:54;99660.25;;;17.45;73.70
54455;BME280;40364;52.270;10.546;2022-12-24T05:42:21;99670.53;;;17.07;74.15
54455;BME280;40364;52.270;10.546;2022-12-24T05:44:47;99680.44;;;17.36;73.32
54455;BME280;40364;52.270;10.546;2022-12-24T05:47:15;99683.34;;;17.84;70.89
54455;BME280;40364;52.270;10.546;2022-12-24T05:49:42;99688.31;;;17.63;69.39
54455;BME280;40364;52.270;10.546;2022-12-24T05:52:09;99684.84;;;17.41;72.13
54455;BME280;40364;52.270;10.546;2022-12-24T05:54:35;99695.41;;;17.85;69.42
54455;BME280;40364;52.270;10.546;2022-12-24T05:57:02;99697.25;;;17.43;71.33
54455;BME280;40364;52.270;10.546;2022-12-24T05:59:29;99709.38;;;17.37;71.89
54455;BME280;40364;52.270;10.546;2022-12-24T06:01:55;99711.66;;;17.60;70.74
54455;BME280;40364;52.270;10.546;2022-12-24T06:04:23;99707.00;;;17.28;71.60
54455;BME280;40364;52.270;10.546;2022-12-24T06:06:50;99711.13;;;17.06;72.97
54455;BME280;40364;52.270;10.546;2022-12-24T06:09:16;99721.91;;;17.22;71.55
54455;BME280;40364;52.270;10.546;2022-12-24T06:11:46;99726.19;;;17.47;69.98
54455;BME280;40364;52.270;10.546;2022-12-24T06:14:13;99738.16;;;18.28;66.75
54455;BME280;40364;52.270;10.546;2022-12-24T06:16:39;99736.78;;;17.99;67.92
54455;BME280;40364;52.270;10.546;2022-12-24T06:19:06;99733.81;;;17.50;67.62
54455;BME280;40364;52.270;10.546;2022-12-24T06:21:34;99727.16;;;17.12;72.38
54455;BME280;40364;52.270;10.546;2022-12-24T06:24:00;99733.63;;;17.09;71.96
54455;BME280;40364;52.270;10.546;2022-12-24T06:26:27;99739.72;;;16.87;74.58
54455;BME280;40364;52.270;10.546;2022-12-24T06:28:54;99740.47;;;17.12;73.44
54455;BME280;40364;52.270;10.546;2022-12-24T06:31:22;99743.41;;;16.37;79.00
54455;BME280;40364;52.270;10.546;2022-12-24T06:33:50;99748.81;;;17.30;77.87
54455;BME280;40364;52.270;10.546;2022-12-24T06:36:19;99748.22;;;16.30;89.05
54455;BME280;40364;52.270;10.546;2022-12-24T06:38:48;99754.22;;;17.76;78.49
54455;BME280;40364;52.270;10.546;2022-12-24T06:41:15;99760.06;;;17.30;79.39
54455;BME280;40364;52.270;10.546;2022-12-24T06:43:43;99757.84;;;15.97;91.86
54455;BME280;40364;52.270;10.546;2022-12-24T06:46:10;99763.16;;;18.71;68.53
54455;BME280;40364;52.270;10.546;2022-12-24T06:48:37;99770.69;;;18.84;66.83
54455;BME280;40364;52.270;10.546;2022-12-24T06:51:04;99767.16;;;18.29;67.31
54455;BME280;40364;52.270;10.546;2022-12-24T06:53:31;99777.91;;;18.41;69.45
54455;BME280;40364;52.270;10.546;2022-12-24T06:56:03;99775.03;;;17.05;76.78
54455;BME280;40364;52.270;10.546;2022-12-24T06:58:29;99780.34;;;16.71;80.04
54455;BME280;40364;52.270;10.546;2022-12-24T07:00:56;99788.75;;;16.25;82.37
54455;BME280;40364;52.270;10.546;2022-12-24T07:03:23;99794.41;;;16.46;80.32
54455;BME280;40364;52.270;10.546;2022-12-24T07:05:50;99784.72;;;16.62;80.17
54455;BME280;40364;52.270;10.546;2022-12-24T07:08:16;99791.59;;;16.46;79.79
54455;BME280;40364;52.270;10.546;2022-12-24T07:10:43;99798.78;;;16.05;82.76
54455;BME280;40364;52.270;10.546;2022-12-24T07:13:11;99805.22;;;16.30;82.51
54455;BME280;40364;52.270;10.546;2022-12-24T07:15:37;99808.03;;;16.34;80.59
54455;BME280;40364;52.270;10.546;2022-12-24T07:18:04;99814.78;;;15.76;87.31
54455;BME280;40364;52.270;10.546;2022-12-24T07:20:31;99812.41;;;16.03;80.31
54455;BME280;40364;52.270;10.546;2022-12-24T07:22:58;99815.56;;;17.29;73.07
54455;BME280;40364;52.270;10.546;2022-12-24T07:25:25;99832.34;;;17.68;69.79
54455;BME280;40364;52.270;10.546;2022-12-24T07:27:51;99828.72;;;17.71;68.00
54455;BME280;40364;52.270;10.546;2022-12-24T07:30:19;99844.19;;;16.60;73.51
54455;BME280;40364;52.270;10.546;2022-12-24T07:32:46;99837.75;;;16.35;72.64
54455;BME280;40364;52.270;10.546;2022-12-24T07:35:13;99840.97;;;16.55;74.53
54455;BME280;40364;52.270;10.546;2022-12-24T07:37:39;99848.59;;;16.61;73.52
54455;BME280;40364;52.270;10.546;2022-12-24T07:40:07;99855.84;;;17.05;72.34
54455;BME280;40364;52.270;10.546;2022-12-24T07:42:34;99836.59;;;16.71;70.08
54455;BME280;40364;52.270;10.546;2022-12-24T07:45:01;99851.81;;;16.63;72.36
54455;BME280;40364;52.270;10.546;2022-12-24T07:47:29;99855.03;;;16.87;69.73
54455;BME280;40364;52.270;10.546;2022-12-24T07:49:55;99868.66;;;17.16;68.49
54455;BME280;40364;52.270;10.546;2022-12-24T07:52:22;99872.69;;;16.51;70.84
54455;BME280;40364;52.270;10.546;2022-12-24T07:54:49;99883.97;;;16.83;69.57
54455;BME280;40364;52.270;10.546;2022-12-24T07:57:16;99885.53;;;17.16;67.22
54455;BME280;40364;52.270;10.546;2022-12-24T07:59:42;99885.59;;;16.77;68.43
54455;BME280;40364;52.270;10.546;2022-12-24T08:02:09;99893.63;;;17.11;68.11
54455;BME280;40364;52.270;10.546;2022-12-24T08:04:38;99893.41;;;17.86;62.81
54455;BME280;40364;52.270;10.546;2022-12-24T08:07:05;99896.72;;;17.59;64.57
54455;BME280;40364;52.270;10.546;2022-12-24T08:09:32;99912.09;;;17.08;65.77
54455;BME280;40364;52.270;10.546;2022-12-24T08:12:00;99912.88;;;17.12;66.36
54455;BME280;40364;52.270;10.546;2022-12-24T08:14:27;99912.50;;;17.03;66.27
54455;BME280;40364;52.270;10.546;2022-12-24T08:16:54;99922.94;;;17.24;64.29
54455;BME280;40364;52.270;10.546;2022-12-24T08:19:21;99913.72;;;17.09;65.24
54455;BME280;40364;52.270;10.546;2022-12-24T08:21:49;99926.56;;;16.93;66.89
54455;BME280;40364;52.270;10.546;2022-12-24T08:24:16;99931.41;;;17.10;66.99
54455;BME280;40364;52.270;10.546;2022-12-24T08:26:43;99928.16;;;16.90;67.40
54455;BME280;40364;52.270;10.546;2022-12-24T08:29:09;99939.75;;;17.56;64.28
54455;BME280;40364;52.270;10.546;2022-12-24T08:31:36;99938.97;;;17.52;64.67
54455;BME280;40364;52.270;10.546;2022-12-24T08:34:04;99949.81;;;17.64;64.20
54455;BME280;40364;52.270;10.546;2022-12-24T08:36:30;99963.53;;;17.20;64.88
54455;BME280;40364;52.270;10.546;2022-12-24T08:38:58;99950.94;;;17.92;63.18
54455;BME280;40364;52.270;10.546;2022-12-24T08:41:28;99964.56;;;18.84;58.27
54455;BME280;40364;52.270;10.546;2022-12-24T08:43:54;99947.38;;;17.73;62.72
54455;BME280;40364;52.270;10.546;2022-12-24T08:46:21;99946.50;;;18.01;61.81
54455;BME280;40364;52.270;10.546;2022-12-24T08:48:48;99960.72;;;17.23;64.72
54455;BME280;40364;52.270;10.546;2022-12-24T08:51:14;99964.31;;;16.67;66.49
54455;BME280;40364;52.270;10.546;2022-12-24T08:53:43;99969.97;;;17.27;64.93
54455;BME280;40364;52.270;10.546;2022-12-24T08:56:12;99974.69;;;17.98;61.08
54455;BME280;40364;52.270;10.546;2022-12-24T08:58:39;99978.28;;;18.02;61.15
54455;BME280;40364;52.270;10.546;2022-12-24T09:01:10;99980.84;;;17.07;65.33
54455;BME280;40364;52.270;10.546;2022-12-24T09:03:37;99993.28;;;17.21;63.78
54455;BME280;40364;52.270;10.546;2022-12-24T09:06:05;99990.09;;;17.04;65.29
54455;BME280;40364;52.270;10.546;2022-12-24T09:08:32;99993.09;;;16.28;70.71
54455;BME280;40364;52.270;10.546;2022-12-24T09:11:02;99987.66;;;17.28;66.92
54455;BME280;40364;52.270;10.546;2022-12-24T09:13:30;99979.94;;;17.81;63.76
54455;BME280;40364;52.270;10.546;2022-12-24T09:15:57;99990.81;;;17.76;62.58
54455;BME280;40364;52.270;10.546;2022-12-24T09:18:24;99998.91;;;17.49;63.64
54455;BME280;40364;52.270;10.546;2022-12-24T09:20:57;99997.28;;;17.12;66.64
54455;BME280;40364;52.270;10.546;2022-12-24T09:23:24;100001.13;;;16.26;73.05
54455;BME280;40364;52.270;10.546;2022-12-24T09:25:51;100005.34;;;17.32;69.01
54455;BME280;40364;52.270;10.546;2022-12-24T09:28:18;100017.25;;;18.28;63.59
54455;BME280;40364;52.270;10.546;2022-12-24T09:30:54;100021.41;;;17.84;67.46
54455;BME280;40364;52.270;10.546;2022-12-24T09:33:21;100025.44;;;17.55;72.26
54455;BME280;40364;52.270;10.546;2022-12-24T09:35:49;100025.69;;;16.43;81.77
54455;BME280;40364;52.270;10.546;2022-12-24T09:38:16;100036.69;;;16.98;79.76
54455;BME280;40364;52.270;10.546;2022-12-24T09:40:43;100030.28;;;17.23;78.95
54455;BME280;40364;52.270;10.546;2022-12-24T09:43:13;100029.88;;;17.63;75.65
54455;BME280;40364;52.270;10.546;2022-12-24T09:45:47;100036.72;;;17.27;78.56
54455;BME280;40364;52.270;10.546;2022-12-24T09:48:17;100044.75;;;17.03;81.47
54455;BME280;40364;52.270;10.546;2022-12-24T09:50:50;100050.41;;;17.42;76.46
54455;BME280;40364;52.270;10.546;2022-12-24T09:53:22;100046.34;;;17.18;78.68
54455;BME280;40364;52.270;10.546;2022-12-24T09:55:52;100056.75;;;15.96;86.76
54455;BME280;40364;52.270;10.546;2022-12-24T09:58:29;100062.00;;;16.01;89.86
54455;BME280;40364;52.270;10.546;2022-12-24T10:01:01;100069.00;;;15.66;90.12
54455;BME280;40364;52.270;10.546;2022-12-24T10:03:27;100073.44;;;15.23;94.03
54455;BME280;40364;52.270;10.546;2022-12-24T10:06:04;100071.81;;;16.32;83.46
54455;BME280;40364;52.270;10.546;2022-12-24T10:08:42;100067.81;;;15.67;84.17
54455;BME280;40364;52.270;10.546;2022-12-24T10:11:15;100065.41;;;16.38;83.48
54455;BME280;40364;52.270;10.546;2022-12-24T10:14:07;100079.72;;;17.02;80.63
54455;BME280;40364;52.270;10.546;2022-12-24T10:16:43;100078.72;;;16.48;80.33
54455;BME280;40364;52.270;10.546;2022-12-24T10:19:16;100077.50;;;16.53;78.70
54455;BME280;40364;52.270;10.546;2022-12-24T10:21:54;100085.25;;;16.74;80.98
54455;BME280;40364;52.270;10.546;2022-12-24T10:24:28;100081.78;;;17.41;74.97
54455;BME280;40364;52.270;10.546;2022-12-24T10:27:01;100085.69;;;16.76;78.03
54455;BME280;40364;52.270;10.546;2022-12-24T10:29:33;100089.38;;;17.23;75.60
54455;BME280;40364;52.270;10.546;2022-12-24T10:32:11;100087.78;;;17.64;74.51
54455;BME280;40364;52.270;10.546;2022-12-24T10:34:43;100093.31;;;16.03;77.78
54455;BME280;40364;52.270;10.546;2022-12-24T10:37:14;100090.00;;;16.63;78.64
54455;BME280;40364;52.270;10.546;2022-12-24T10:39:42;100099.38;;;16.95;76.01
54455;BME280;40364;52.270;10.546;2022-12-24T10:42:11;100109.66;;;16.59;78.35
54455;BME280;40364;52.270;10.546;2022-12-24T10:44:38;100099.88;;;17.75;72.48
54455;BME280;40364;52.270;10.546;2022-12-24T10:47:08;100100.94;;;18.38;66.44
54455;BME280;40364;52.270;10.546;2022-12-24T10:49:39;100095.88;;;17.69;70.69
54455;BME280;40364;52.270;10.546;2022-12-24T10:52:11;100108.28;;;18.11;66.81
54455;BME280;40364;52.270;10.546;2022-12-24T10:55:03;100109.47;;;19.18;62.98
54455;BME280;40364;52.270;10.546;2022-12-24T10:57:31;100110.50;;;18.80;63.48
54455;BME280;40364;52.270;10.546;2022-12-24T10:59:57;100109.41;;;18.45;64.91
54455;BME280;40364;52.270;10.546;2022-12-24T11:02:28;100107.75;;;18.55;65.52
54455;BME280;40364;52.270;10.546;2022-12-24T11:04:56;100119.56;;;17.61;68.47
54455;BME280;40364;52.270;10.546;2022-12-24T11:07:25;100121.66;;;19.05;63.98
54455;BME280;40364;52.270;10.546;2022-12-24T11:09:56;100122.34;;;18.22;66.80
54455;BME280;40364;52.270;10.546;2022-12-24T11:12:25;100117.38;;;19.41;61.93
54455;BME280;40364;52.270;10.546;2022-12-24T11:15:04;100114.22;;;18.48;64.75
54455;BME280;40364;52.270;10.546;2022-12-24T11:17:33;100125.66;;;17.70;70.43
54455;BME280;40364;52.270;10.546;2022-12-24T11:20:01;100121.88;;;16.92;71.46
54455;BME280;40364;52.270;10.546;2022-12-24T11:22:30;100122.13;;;16.62;78.57
54455;BME280;40364;52.270;10.546;2022-12-24T11:25:03;100122.69;;;16.92;77.50
54455;BME280;40364;52.270;10.546;2022-12-24T11:27:39;100122.66;;;16.85;78.77
54455;BME280;40364;52.270;10.546;2022-12-24T11:30:28;100124.44;;;17.71;73.69
54455;BME280;40364;52.270;10.546;2022-12-24T11:33:19;100133.13;;;16.95;76.83
54455;BME280;40364;52.270;10.546;2022-12-24T11:35:49;100132.03;;;15.32;95.04
54455;BME280;40364;52.270;10.546;2022-12-24T11:38:19;100132.88;;;16.38;85.38
54455;BME280;40364;52.270;10.546;2022-12-24T11:40:48;100126.47;;;16.41;85.53
54455;BME280;40364;52.270;10.546;2022-12-24T11:43:17;100131.09;;;15.17;95.62
54455;BME280;40364;52.270;10.546;2022-12-24T11:45:48;100141.50;;;16.74;84.30
54455;BME280;40364;52.270;10.546;2022-12-24T11:48:26;100136.88;;;17.63;77.76
54455;BME280;40364;52.270;10.546;2022-12-24T11:50:58;100141.34;;;15.83;90.30
54455;BME280;40364;52.270;10.546;2022-12-24T11:53:29;100138.75;;;16.92;88.72
54455;BME280;40364;52.270;10.546;2022-12-24T11:55:59;100124.25;;;16.79;86.68
54455;BME280;40364;52.270;10.546;2022-12-24T11:58:32;100138.78;;;16.95;82.96
54455;BME280;40364;52.270;10.546;2022-12-24T12:01:11;100132.97;;;16.60;85.71
54455;BME280;40364;52.270;10.546;2022-12-24T12:03:44;100128.88;;;19.09;68.23
54455;BME280;40364;52.270;10.546;2022-12-24T12:06:21;100132.44;;;17.41;78.14
54455;BME280;40364;52.270;10.546;2022-12-24T12:08:49;100134.03;;;18.27;69.96
54455;BME280;40364;52.270;10.546;2022-12-24T12:11:20;100136.47;;;18.14;69.63
54455;BME280;40364;52.270;10.546;2022-12-24T12:13:47;100144.50;;;17.56;77.46
54455;BME280;40364;52.270;10.546;2022-12-24T12:16:19;100135.66;;;18.21;74.02
54455;BME280;40364;52.270;10.546;2022-12-24T12:18:53;100134.03;;;18.34;70.53
54455;BME280;40364;52.270;10.546;2022-12-24T12:21:24;100133.25;;;17.63;73.26
54455;BME280;40364;52.270;10.546;2022-12-24T12:23:54;100146.91;;;17.29;78.93
54455;BME280;40364;52.270;10.546;2022-12-24T12:26:26;100143.72;;;18.05;74.85
54455;BME280;40364;52.270;10.546;2022-12-24T12:28:56;100144.50;;;18.30;71.69
54455;BME280;40364;52.270;10.546;2022-12-24T12:31:27;100156.78;;;16.07;85.25
54455;BME280;40364;52.270;10.546;2022-12-24T12:33:59;100148.69;;;15.99;93.28
54455;BME280;40364;52.270;10.546;2022-12-24T12:36:31;100153.81;;;16.44;89.13
54455;BME280;40364;52.270;10.546;2022-12-24T12:38:59;100151.34;;;18.29;74.26
54455;BME280;40364;52.270;10.546;2022-12-24T12:41:33;100148.88;;;18.60;70.57
54455;BME280;40364;52.270;10.546;2022-12-24T12:44:30;100165.78;;;19.47;65.02
54455;BME280;40364;52.270;10.546;2022-12-24T12:47:19;100171.09;;;18.18;71.24
54455;BME280;40364;52.270;10.546;2022-12-24T12:49:56;100179.94;;;18.31;72.50
54455;BME280;40364;52.270;10.546;2022-12-24T12:52:40;100170.28;;;18.18;72.32
54455;BME280;40364;52.270;10.546;2022-12-24T12:55:21;100184.56;;;16.92;78.53
54455;BME280;40364;52.270;10.546;2022-12-24T12:57:56;100203.84;;;16.90;80.58
54455;BME280;40364;52.270;10.546;2022-12-24T13:00:27;100198.38;;;17.33;78.04